sensor_id;sensor_type;location;lat;lon;timestamp;P1;durP1;ratioP1;P2;durP2;ratioP2
15982;SDS011;14442;50.196;8.096;2023-05-16T00:01:49;2.27;;;2.10;;
15982;SDS011;14442;50.196;8.096;2023-05-16T00:04:16;2.10;;;1.90;;
15982;SDS011;14442;50.196;8.096;2023-05-16T00:06:44;1.83;;;1.73;;
15982;SDS011;14442;50.196;8.096;2023-05-16T00:09:10;2.03;;;1.80;;
15982;SDS011;14442;50.196;8.096;2023-05-16T00:11:37;1.87;;;1.77;;
15982;SDS011;14442;50.196;8.096;2023-05-16T00:14:04;1.90;;;1.80;;
15982;SDS011;14442;50.196;8.096;2023-05-16T00:16:31;2.10;;;1.90;;
15982;SDS011;14442;50.196;8.096;2023-05-16T00:19:00;2.07;;;1.70;;
15982;SDS011;14442;50.196;8.096;2023-05-16T00:21:28;2.13;;;1.93;;
15982;SDS011;14442;50.196;8.096;2023-05-16T00:23:56;2.00;;;1.90;;
15982;SDS011;14442;50.196;8.096;2023-05-16T00:26:23;1.70;;;1.70;;
15982;SDS011;14442;50.196;8.096;2023-05-16T00:28:50;1.77;;;1.57;;
15982;SDS011;14442;50.196;8.096;2023-05-16T00:31:17;1.53;;;1.53;;
15982;SDS011;14442;50.196;8.096;2023-05-16T00:33:43;1.70;;;1.63;;
15982;SDS011;14442;50.196;8.096;2023-05-16T00:36:10;2.00;;;1.90;;
15982;SDS011;14442;50.196;8.096;2023-05-16T00:38:37;2.10;;;1.80;;
15982;SDS011;14442;50.196;8.096;2023-05-16T00:41:05;2.40;;;2.20;;
15982;SDS011;14442;50.196;8.096;2023-05-16T00:43:31;2.40;;;1.90;;
15982;SDS011;14442;50.196;8.096;2023-05-16T00:45:58;2.03;;;1.90;;
15982;SDS011;14442;50.196;8.096;2023-05-16T00:48:25;1.77;;;1.67;;
15982;SDS011;14442;50.196;8.096;2023-05-16T00:50:52;2.00;;;1.90;;
15982;SDS011;14442;50.196;8.096;2023-05-16T00:53:19;2.10;;;2.00;;
15982;SDS011;14442;50.196;8.096;2023-05-16T00:55:45;1.93;;;1.83;;
15982;SDS011;14442;50.196;8.096;2023-05-16T00:58:14;2.03;;;1.87;;
15982;SDS011;14442;50.196;8.096;2023-05-16T01:00:41;2.20;;;1.93;;
15982;SDS011;14442;50.196;8.096;2023-05-16T01:03:09;2.27;;;2.17;;
15982;SDS011;14442;50.196;8.096;2023-05-16T01:05:36;2.10;;;2.00;;
15982;SDS011;14442;50.196;8.096;2023-05-16T01:08:03;2.20;;;2.10;;
15982;SDS011;14442;50.196;8.096;2023-05-16T01:10:31;2.27;;;2.17;;
15982;SDS011;14442;50.196;8.096;2023-05-16T01:13:06;2.30;;;2.07;;
15982;SDS011;14442;50.196;8.096;2023-05-16T01:15:42;2.37;;;2.17;;
15982;SDS011;14442;50.196;8.096;2023-05-16T01:18:14;1.70;;;1.60;;
15982;SDS011;14442;50.196;8.096;2023-05-16T01:20:51;2.00;;;1.90;;
15982;SDS011;14442;50.196;8.096;2023-05-16T01:26:17;2.10;;;2.00;;
15982;SDS011;14442;50.196;8.096;2023-05-16T01:28:46;2.20;;;2.10;;
15982;SDS011;14442;50.196;8.096;2023-05-16T01:31:13;2.13;;;2.00;;
15982;SDS011;14442;50.196;8.096;2023-05-16T01:33:41;2.43;;;2.33;;
15982;SDS011;14442;50.196;8.096;2023-05-16T01:36:10;2.13;;;2.03;;
15982;SDS011;14442;50.196;8.096;2023-05-16T01:38:43;1.90;;;1.80;;
15982;SDS011;14442;50.196;8.096;2023-05-16T01:41:18;2.33;;;2.23;;
15982;SDS011;14442;50.196;8.096;2023-05-16T01:43:50;2.20;;;2.10;;
15982;SDS011;14442;50.196;8.096;2023-05-16T01:46:20;2.10;;;1.90;;
15982;SDS011;14442;50.196;8.096;2023-05-16T01:48:57;2.13;;;2.03;;
15982;SDS011;14442;50.196;8.096;2023-05-16T01:51:28;2.13;;;2.03;;
15982;SDS011;14442;50.196;8.096;2023-05-16T01:53:58;1.93;;;1.83;;
15982;SDS011;14442;50.196;8.096;2023-05-16T01:56:31;2.10;;;2.00;;
15982;SDS011;14442;50.196;8.096;2023-05-16T01:58:58;2.33;;;2.23;;
15982;SDS011;14442;50.196;8.096;2023-05-16T02:01:25;1.60;;;1.50;;
15982;SDS011;14442;50.196;8.096;2023-05-16T02:03:52;1.97;;;1.87;;
15982;SDS011;14442;50.196;8.096;2023-05-16T02:06:19;1.87;;;1.77;;
15982;SDS011;14442;50.196;8.096;2023-05-16T02:08:46;2.00;;;1.90;;
15982;SDS011;14442;50.196;8.096;2023-05-16T02:11:13;2.10;;;2.00;;
15982;SDS011;14442;50.196;8.096;2023-05-16T02:13:41;2.07;;;1.97;;
15982;SDS011;14442;50.196;8.096;2023-05-16T02:16:09;1.93;;;1.83;;
15982;SDS011;14442;50.196;8.096;2023-05-16T02:18:35;2.27;;;2.17;;
15982;SDS011;14442;50.196;8.096;2023-05-16T02:21:02;1.83;;;1.73;;
15982;SDS011;14442;50.196;8.096;2023-05-16T02:23:29;2.30;;;2.20;;
15982;SDS011;14442;50.196;8.096;2023-05-16T02:25:56;2.23;;;2.03;;
15982;SDS011;14442;50.196;8.096;2023-05-16T02:28:22;2.00;;;1.90;;
15982;SDS011;14442;50.196;8.096;2023-05-16T02:30:56;2.03;;;1.90;;
15982;SDS011;14442;50.196;8.096;2023-05-16T02:33:23;2.13;;;2.03;;
15982;SDS011;14442;50.196;8.096;2023-05-16T02:35:50;2.00;;;1.90;;
15982;SDS011;14442;50.196;8.096;2023-05-16T02:38:17;1.97;;;1.83;;
15982;SDS011;14442;50.196;8.096;2023-05-16T02:40:45;2.07;;;1.97;;
15982;SDS011;14442;50.196;8.096;2023-05-16T02:43:11;2.20;;;1.97;;
15982;SDS011;14442;50.196;8.096;2023-05-16T02:45:38;2.10;;;2.00;;
15982;SDS011;14442;50.196;8.096;2023-05-16T02:48:06;1.90;;;1.80;;
15982;SDS011;14442;50.196;8.096;2023-05-16T02:50:33;2.10;;;2.00;;
15982;SDS011;14442;50.196;8.096;2023-05-16T02:53:00;1.83;;;1.73;;
15982;SDS011;14442;50.196;8.096;2023-05-16T02:55:26;1.97;;;1.87;;
15982;SDS011;14442;50.196;8.096;2023-05-16T02:57:53;2.03;;;1.93;;
15982;SDS011;14442;50.196;8.096;2023-05-16T03:00:20;1.83;;;1.70;;
15982;SDS011;14442;50.196;8.096;2023-05-16T03:02:47;1.70;;;1.70;;
15982;SDS011;14442;50.196;8.096;2023-05-16T03:05:15;1.70;;;1.70;;
15982;SDS011;14442;50.196;8.096;2023-05-16T03:07:42;1.93;;;1.87;;
15982;SDS011;14442;50.196;8.096;2023-05-16T03:10:09;1.60;;;1.57;;
15982;SDS011;14442;50.196;8.096;2023-05-16T03:12:36;1.80;;;1.70;;
15982;SDS011;14442;50.196;8.096;2023-05-16T03:15:03;1.80;;;1.70;;
15982;SDS011;14442;50.196;8.096;2023-05-16T03:17:30;2.40;;;1.60;;
15982;SDS011;14442;50.196;8.096;2023-05-16T03:19:57;1.83;;;1.73;;
15982;SDS011;14442;50.196;8.096;2023-05-16T03:22:25;1.73;;;1.70;;
15982;SDS011;14442;50.196;8.096;2023-05-16T03:24:52;1.50;;;1.50;;
15982;SDS011;14442;50.196;8.096;2023-05-16T03:27:18;1.90;;;1.80;;
15982;SDS011;14442;50.196;8.096;2023-05-16T03:29:45;1.60;;;1.50;;
15982;SDS011;14442;50.196;8.096;2023-05-16T03:32:12;1.70;;;1.60;;
15982;SDS011;14442;50.196;8.096;2023-05-16T03:34:38;2.80;;;1.33;;
15982;SDS011;14442;50.196;8.096;2023-05-16T03:37:05;1.53;;;1.53;;
15982;SDS011;14442;50.196;8.096;2023-05-16T03:39:33;1.23;;;1.23;;
15982;SDS011;14442;50.196;8.096;2023-05-16T03:42:00;1.20;;;1.20;;
15982;SDS011;14442;50.196;8.096;2023-05-16T03:44:26;1.00;;;1.00;;
15982;SDS011;14442;50.196;8.096;2023-05-16T03:46:53;1.37;;;1.37;;
15982;SDS011;14442;50.196;8.096;2023-05-16T03:49:22;1.90;;;1.50;;
15982;SDS011;14442;50.196;8.096;2023-05-16T03:51:51;1.10;;;1.10;;
15982;SDS011;14442;50.196;8.096;2023-05-16T03:54:18;2.43;;;1.10;;
15982;SDS011;14442;50.196;8.096;2023-05-16T03:56:45;1.00;;;1.00;;
15982;SDS011;14442;50.196;8.096;2023-05-16T03:59:12;1.20;;;1.20;;
15982;SDS011;14442;50.196;8.096;2023-05-16T04:01:39;0.90;;;0.90;;
15982;SDS011;14442;50.196;8.096;2023-05-16T04:04:05;1.07;;;1.07;;
15982;SDS011;14442;50.196;8.096;2023-05-16T04:06:32;0.90;;;0.90;;
15982;SDS011;14442;50.196;8.096;2023-05-16T04:08:59;1.10;;;1.00;;
15982;SDS011;14442;50.196;8.096;2023-05-16T04:11:26;0.87;;;0.87;;
15982;SDS011;14442;50.196;8.096;2023-05-16T04:13:54;0.77;;;0.77;;
15982;SDS011;14442;50.196;8.096;2023-05-16T04:16:20;1.00;;;1.00;;
15982;SDS011;14442;50.196;8.096;2023-05-16T04:18:47;0.77;;;0.77;;
15982;SDS011;14442;50.196;8.096;2023-05-16T04:21:14;0.80;;;0.80;;
15982;SDS011;14442;50.196;8.096;2023-05-16T04:23:40;0.87;;;0.87;;
15982;SDS011;14442;50.196;8.096;2023-05-16T04:26:07;0.63;;;0.63;;
15982;SDS011;14442;50.196;8.096;2023-05-16T04:28:34;0.70;;;0.70;;
15982;SDS011;14442;50.196;8.096;2023-05-16T04:31:02;1.43;;;0.60;;
15982;SDS011;14442;50.196;8.096;2023-05-16T04:33:29;0.83;;;0.70;;
15982;SDS011;14442;50.196;8.096;2023-05-16T04:35:56;0.63;;;0.60;;
15982;SDS011;14442;50.196;8.096;2023-05-16T04:38:23;0.63;;;0.63;;
15982;SDS011;14442;50.196;8.096;2023-05-16T04:40:49;0.60;;;0.60;;
15982;SDS011;14442;50.196;8.096;2023-05-16T04:43:16;0.77;;;0.60;;
15982;SDS011;14442;50.196;8.096;2023-05-16T04:45:43;0.60;;;0.60;;
15982;SDS011;14442;50.196;8.096;2023-05-16T04:48:12;0.83;;;0.70;;
15982;SDS011;14442;50.196;8.096;2023-05-16T04:50:39;0.60;;;0.60;;
15982;SDS011;14442;50.196;8.096;2023-05-16T04:53:05;0.60;;;0.60;;
15982;SDS011;14442;50.196;8.096;2023-05-16T04:55:32;0.40;;;0.40;;
15982;SDS011;14442;50.196;8.096;2023-05-16T04:57:59;0.70;;;0.70;;
15982;SDS011;14442;50.196;8.096;2023-05-16T05:00:26;0.40;;;0.40;;
15982;SDS011;14442;50.196;8.096;2023-05-16T05:02:52;0.60;;;0.60;;
15982;SDS011;14442;50.196;8.096;2023-05-16T05:05:20;0.70;;;0.60;;
15982;SDS011;14442;50.196;8.096;2023-05-16T05:07:47;0.50;;;0.50;;
15982;SDS011;14442;50.196;8.096;2023-05-16T05:10:14;0.53;;;0.53;;
15982;SDS011;14442;50.196;8.096;2023-05-16T05:12:41;0.50;;;0.50;;
15982;SDS011;14442;50.196;8.096;2023-05-16T05:15:07;0.60;;;0.50;;
15982;SDS011;14442;50.196;8.096;2023-05-16T05:17:34;0.53;;;0.53;;
15982;SDS011;14442;50.196;8.096;2023-05-16T05:20:02;0.40;;;0.40;;
15982;SDS011;14442;50.196;8.096;2023-05-16T05:22:32;0.50;;;0.50;;
15982;SDS011;14442;50.196;8.096;2023-05-16T05:24:59;0.60;;;0.60;;
15982;SDS011;14442;50.196;8.096;2023-05-16T05:27:25;0.60;;;0.60;;
15982;SDS011;14442;50.196;8.096;2023-05-16T05:29:52;0.43;;;0.43;;
15982;SDS011;14442;50.196;8.096;2023-05-16T05:32:19;0.40;;;0.40;;
15982;SDS011;14442;50.196;8.096;2023-05-16T05:34:46;0.40;;;0.40;;
15982;SDS011;14442;50.196;8.096;2023-05-16T05:37:12;0.53;;;0.40;;
15982;SDS011;14442;50.196;8.096;2023-05-16T05:39:40;1.27;;;0.40;;
15982;SDS011;14442;50.196;8.096;2023-05-16T05:42:07;0.60;;;0.50;;
15982;SDS011;14442;50.196;8.096;2023-05-16T05:44:34;0.63;;;0.40;;
15982;SDS011;14442;50.196;8.096;2023-05-16T05:47:01;0.50;;;0.40;;
15982;SDS011;14442;50.196;8.096;2023-05-16T05:49:28;0.50;;;0.50;;
15982;SDS011;14442;50.196;8.096;2023-05-16T05:51:56;1.33;;;0.50;;
15982;SDS011;14442;50.196;8.096;2023-05-16T05:54:22;3.67;;;0.40;;
15982;SDS011;14442;50.196;8.096;2023-05-16T05:56:51;2.90;;;0.50;;
15982;SDS011;14442;50.196;8.096;2023-05-16T05:59:17;3.70;;;0.80;;
15982;SDS011;14442;50.196;8.096;2023-05-16T06:01:44;3.60;;;1.00;;
15982;SDS011;14442;50.196;8.096;2023-05-16T06:04:11;4.40;;;1.20;;
15982;SDS011;14442;50.196;8.096;2023-05-16T06:06:37;1.10;;;0.60;;
15982;SDS011;14442;50.196;8.096;2023-05-16T06:09:04;6.37;;;1.03;;
15982;SDS011;14442;50.196;8.096;2023-05-16T06:11:31;2.37;;;0.70;;
15982;SDS011;14442;50.196;8.096;2023-05-16T06:13:59;3.60;;;1.00;;
15982;SDS011;14442;50.196;8.096;2023-05-16T06:16:26;2.87;;;1.10;;
15982;SDS011;14442;50.196;8.096;2023-05-16T06:18:52;2.43;;;0.70;;
15982;SDS011;14442;50.196;8.096;2023-05-16T06:21:19;2.73;;;0.90;;
15982;SDS011;14442;50.196;8.096;2023-05-16T06:23:46;2.40;;;1.00;;
15982;SDS011;14442;50.196;8.096;2023-05-16T06:26:12;2.63;;;0.67;;
15982;SDS011;14442;50.196;8.096;2023-05-16T06:28:42;1.47;;;0.70;;
15982;SDS011;14442;50.196;8.096;2023-05-16T06:31:10;4.63;;;0.97;;
15982;SDS011;14442;50.196;8.096;2023-05-16T06:33:37;1.70;;;0.70;;
15982;SDS011;14442;50.196;8.096;2023-05-16T06:36:04;0.63;;;0.60;;
15982;SDS011;14442;50.196;8.096;2023-05-16T06:38:31;2.33;;;0.70;;
15982;SDS011;14442;50.196;8.096;2023-05-16T06:40:57;0.77;;;0.50;;
15982;SDS011;14442;50.196;8.096;2023-05-16T06:43:24;3.67;;;0.80;;
15982;SDS011;14442;50.196;8.096;2023-05-16T06:45:51;1.63;;;0.67;;
15982;SDS011;14442;50.196;8.096;2023-05-16T06:48:19;2.80;;;1.00;;
15982;SDS011;14442;50.196;8.096;2023-05-16T06:50:46;4.03;;;0.63;;
15982;SDS011;14442;50.196;8.096;2023-05-16T06:53:13;5.47;;;0.80;;
15982;SDS011;14442;50.196;8.096;2023-05-16T06:55:40;6.23;;;0.90;;
15982;SDS011;14442;50.196;8.096;2023-05-16T06:58:06;1.97;;;0.63;;
15982;SDS011;14442;50.196;8.096;2023-05-16T07:00:33;2.47;;;0.70;;
15982;SDS011;14442;50.196;8.096;2023-05-16T07:03:00;4.43;;;1.00;;
15982;SDS011;14442;50.196;8.096;2023-05-16T07:05:29;3.40;;;0.80;;
15982;SDS011;14442;50.196;8.096;2023-05-16T07:07:56;2.03;;;0.83;;
15982;SDS011;14442;50.196;8.096;2023-05-16T07:10:22;5.87;;;0.70;;
15982;SDS011;14442;50.196;8.096;2023-05-16T07:12:49;3.90;;;0.77;;
15982;SDS011;14442;50.196;8.096;2023-05-16T07:15:16;5.37;;;1.03;;
15982;SDS011;14442;50.196;8.096;2023-05-16T07:17:43;2.03;;;0.43;;
15982;SDS011;14442;50.196;8.096;2023-05-16T07:20:10;3.17;;;0.60;;
15982;SDS011;14442;50.196;8.096;2023-05-16T07:22:39;1.60;;;0.50;;
15982;SDS011;14442;50.196;8.096;2023-05-16T07:25:06;0.97;;;0.30;;
15982;SDS011;14442;50.196;8.096;2023-05-16T07:27:36;3.17;;;0.60;;
15982;SDS011;14442;50.196;8.096;2023-05-16T07:30:05;2.47;;;0.50;;
15982;SDS011;14442;50.196;8.096;2023-05-16T07:32:33;2.77;;;0.50;;
15982;SDS011;14442;50.196;8.096;2023-05-16T07:34:59;3.80;;;0.57;;
15982;SDS011;14442;50.196;8.096;2023-05-16T07:37:26;5.77;;;0.60;;
15982;SDS011;14442;50.196;8.096;2023-05-16T07:39:54;2.77;;;0.60;;
15982;SDS011;14442;50.196;8.096;2023-05-16T07:42:21;1.77;;;0.50;;
15982;SDS011;14442;50.196;8.096;2023-05-16T07:44:48;2.87;;;0.77;;
15982;SDS011;14442;50.196;8.096;2023-05-16T07:47:14;4.57;;;0.50;;
15982;SDS011;14442;50.196;8.096;2023-05-16T07:49:41;1.63;;;0.47;;
15982;SDS011;14442;50.196;8.096;2023-05-16T07:52:08;2.50;;;0.50;;
15982;SDS011;14442;50.196;8.096;2023-05-16T07:54:35;2.83;;;0.67;;
15982;SDS011;14442;50.196;8.096;2023-05-16T07:57:03;4.80;;;0.60;;
15982;SDS011;14442;50.196;8.096;2023-05-16T07:59:30;6.00;;;0.40;;
15982;SDS011;14442;50.196;8.096;2023-05-16T08:01:56;2.70;;;0.40;;
15982;SDS011;14442;50.196;8.096;2023-05-16T08:04:23;4.30;;;0.40;;
15982;SDS011;14442;50.196;8.096;2023-05-16T08:06:50;2.90;;;0.50;;
15982;SDS011;14442;50.196;8.096;2023-05-16T08:09:16;1.63;;;0.47;;
15982;SDS011;14442;50.196;8.096;2023-05-16T08:11:43;0.77;;;0.30;;
15982;SDS011;14442;50.196;8.096;2023-05-16T08:14:12;2.37;;;0.33;;
15982;SDS011;14442;50.196;8.096;2023-05-16T08:16:38;2.93;;;0.40;;
15982;SDS011;14442;50.196;8.096;2023-05-16T08:19:05;3.33;;;0.40;;
15982;SDS011;14442;50.196;8.096;2023-05-16T08:21:32;0.50;;;0.27;;
15982;SDS011;14442;50.196;8.096;2023-05-16T08:23:59;2.70;;;0.57;;
15982;SDS011;14442;50.196;8.096;2023-05-16T08:26:25;0.53;;;0.37;;
15982;SDS011;14442;50.196;8.096;2023-05-16T08:28:52;2.20;;;0.30;;
15982;SDS011;14442;50.196;8.096;2023-05-16T08:31:20;3.17;;;0.70;;
15982;SDS011;14442;50.196;8.096;2023-05-16T08:33:46;2.50;;;0.60;;
15982;SDS011;14442;50.196;8.096;2023-05-16T08:36:13;4.83;;;0.40;;
15982;SDS011;14442;50.196;8.096;2023-05-16T08:38:43;1.47;;;0.30;;
15982;SDS011;14442;50.196;8.096;2023-05-16T08:41:10;2.20;;;0.37;;
15982;SDS011;14442;50.196;8.096;2023-05-16T08:43:37;3.43;;;0.47;;
15982;SDS011;14442;50.196;8.096;2023-05-16T08:46:05;5.93;;;0.67;;
15982;SDS011;14442;50.196;8.096;2023-05-16T08:48:33;5.13;;;0.60;;
15982;SDS011;14442;50.196;8.096;2023-05-16T08:51:03;5.37;;;0.50;;
15982;SDS011;14442;50.196;8.096;2023-05-16T08:53:34;0.30;;;0.30;;
15982;SDS011;14442;50.196;8.096;2023-05-16T08:56:05;1.63;;;0.43;;
15982;SDS011;14442;50.196;8.096;2023-05-16T08:58:33;2.83;;;0.90;;
15982;SDS011;14442;50.196;8.096;2023-05-16T09:01:00;3.13;;;0.70;;
15982;SDS011;14442;50.196;8.096;2023-05-16T09:03:34;2.77;;;0.40;;
15982;SDS011;14442;50.196;8.096;2023-05-16T09:06:01;2.07;;;0.50;;
15982;SDS011;14442;50.196;8.096;2023-05-16T09:08:28;4.13;;;0.40;;
15982;SDS011;14442;50.196;8.096;2023-05-16T09:10:55;2.20;;;0.43;;
15982;SDS011;14442;50.196;8.096;2023-05-16T09:13:22;4.40;;;0.50;;
15982;SDS011;14442;50.196;8.096;2023-05-16T09:18:35;5.47;;;0.60;;
15982;SDS011;14442;50.196;8.096;2023-05-16T09:21:02;4.00;;;0.40;;
15982;SDS011;14442;50.196;8.096;2023-05-16T09:23:29;4.27;;;0.67;;
15982;SDS011;14442;50.196;8.096;2023-05-16T09:25:56;2.90;;;0.40;;
15982;SDS011;14442;50.196;8.096;2023-05-16T09:28:24;3.10;;;0.50;;
15982;SDS011;14442;50.196;8.096;2023-05-16T09:30:51;3.30;;;0.83;;
15982;SDS011;14442;50.196;8.096;2023-05-16T09:33:21;6.40;;;0.93;;
15982;SDS011;14442;50.196;8.096;2023-05-16T09:35:54;8.03;;;0.90;;
15982;SDS011;14442;50.196;8.096;2023-05-16T09:38:22;12.87;;;0.97;;
15982;SDS011;14442;50.196;8.096;2023-05-16T09:40:49;8.37;;;1.03;;
15982;SDS011;14442;50.196;8.096;2023-05-16T09:43:17;9.17;;;1.20;;
15982;SDS011;14442;50.196;8.096;2023-05-16T09:45:47;10.60;;;1.07;;
15982;SDS011;14442;50.196;8.096;2023-05-16T09:48:14;13.03;;;1.23;;
15982;SDS011;14442;50.196;8.096;2023-05-16T09:50:45;12.03;;;1.37;;
15982;SDS011;14442;50.196;8.096;2023-05-16T09:53:15;13.53;;;1.07;;
15982;SDS011;14442;50.196;8.096;2023-05-16T09:55:41;7.80;;;0.90;;
15982;SDS011;14442;50.196;8.096;2023-05-16T09:58:08;9.00;;;0.97;;
15982;SDS011;14442;50.196;8.096;2023-05-16T10:00:35;6.03;;;1.10;;
15982;SDS011;14442;50.196;8.096;2023-05-16T10:03:02;5.83;;;1.07;;
15982;SDS011;14442;50.196;8.096;2023-05-16T10:05:29;4.90;;;1.07;;
15982;SDS011;14442;50.196;8.096;2023-05-16T10:07:57;11.87;;;0.87;;
15982;SDS011;14442;50.196;8.096;2023-05-16T10:10:25;7.93;;;0.77;;
15982;SDS011;14442;50.196;8.096;2023-05-16T10:12:52;5.23;;;0.50;;
15982;SDS011;14442;50.196;8.096;2023-05-16T10:15:23;6.70;;;0.80;;
15982;SDS011;14442;50.196;8.096;2023-05-16T10:17:53;4.07;;;0.70;;
15982;SDS011;14442;50.196;8.096;2023-05-16T10:20:23;8.50;;;0.93;;
15982;SDS011;14442;50.196;8.096;2023-05-16T10:22:51;3.33;;;1.30;;
15982;SDS011;14442;50.196;8.096;2023-05-16T10:25:23;3.13;;;0.80;;
15982;SDS011;14442;50.196;8.096;2023-05-16T10:27:54;5.17;;;1.10;;
15982;SDS011;14442;50.196;8.096;2023-05-16T10:30:21;4.53;;;0.80;;
15982;SDS011;14442;50.196;8.096;2023-05-16T10:32:47;4.43;;;0.97;;
15982;SDS011;14442;50.196;8.096;2023-05-16T10:35:16;3.00;;;0.83;;
15982;SDS011;14442;50.196;8.096;2023-05-16T10:37:44;3.40;;;1.20;;
15982;SDS011;14442;50.196;8.096;2023-05-16T10:40:12;3.83;;;0.60;;
15982;SDS011;14442;50.196;8.096;2023-05-16T10:42:43;8.70;;;0.90;;
15982;SDS011;14442;50.196;8.096;2023-05-16T10:45:19;6.50;;;0.80;;
15982;SDS011;14442;50.196;8.096;2023-05-16T10:47:50;4.30;;;0.70;;
15982;SDS011;14442;50.196;8.096;2023-05-16T10:50:31;4.30;;;0.90;;
15982;SDS011;14442;50.196;8.096;2023-05-16T10:53:15;5.53;;;0.70;;
15982;SDS011;14442;50.196;8.096;2023-05-16T10:55:44;8.17;;;1.43;;
15982;SDS011;14442;50.196;8.096;2023-05-16T10:58:18;11.37;;;1.50;;
15982;SDS011;14442;50.196;8.096;2023-05-16T11:00:49;7.10;;;1.17;;
15982;SDS011;14442;50.196;8.096;2023-05-16T11:04:06;6.40;;;1.03;;
15982;SDS011;14442;50.196;8.096;2023-05-16T11:06:34;4.93;;;0.87;;
15982;SDS011;14442;50.196;8.096;2023-05-16T11:09:16;6.87;;;0.90;;
15982;SDS011;14442;50.196;8.096;2023-05-16T11:11:46;6.27;;;1.10;;
15982;SDS011;14442;50.196;8.096;2023-05-16T11:14:20;10.63;;;1.33;;
15982;SDS011;14442;50.196;8.096;2023-05-16T11:16:48;11.07;;;1.23;;
15982;SDS011;14442;50.196;8.096;2023-05-16T11:19:27;7.27;;;0.90;;
15982;SDS011;14442;50.196;8.096;2023-05-16T11:22:08;9.87;;;1.00;;
15982;SDS011;14442;50.196;8.096;2023-05-16T11:24:47;9.87;;;1.27;;
15982;SDS011;14442;50.196;8.096;2023-05-16T11:27:18;7.17;;;0.90;;
15982;SDS011;14442;50.196;8.096;2023-05-16T11:29:49;10.00;;;1.50;;
15982;SDS011;14442;50.196;8.096;2023-05-16T11:32:18;14.13;;;1.63;;
15982;SDS011;14442;50.196;8.096;2023-05-16T11:34:46;9.60;;;0.90;;
15982;SDS011;14442;50.196;8.096;2023-05-16T11:37:13;9.40;;;0.97;;
15982;SDS011;14442;50.196;8.096;2023-05-16T11:39:40;8.60;;;1.27;;
15982;SDS011;14442;50.196;8.096;2023-05-16T11:42:07;8.73;;;1.80;;
15982;SDS011;14442;50.196;8.096;2023-05-16T11:44:34;3.73;;;0.60;;
15982;SDS011;14442;50.196;8.096;2023-05-16T11:47:02;6.57;;;1.03;;
15982;SDS011;14442;50.196;8.096;2023-05-16T11:49:31;4.03;;;0.57;;
15982;SDS011;14442;50.196;8.096;2023-05-16T11:52:00;8.00;;;0.87;;
15982;SDS011;14442;50.196;8.096;2023-05-16T11:54:27;8.03;;;1.03;;
15982;SDS011;14442;50.196;8.096;2023-05-16T11:56:53;3.73;;;0.60;;
15982;SDS011;14442;50.196;8.096;2023-05-16T11:59:20;5.60;;;0.80;;
15982;SDS011;14442;50.196;8.096;2023-05-16T12:01:47;6.67;;;0.73;;
15982;SDS011;14442;50.196;8.096;2023-05-16T12:04:16;2.50;;;0.67;;
15982;SDS011;14442;50.196;8.096;2023-05-16T12:06:44;5.00;;;0.53;;
15982;SDS011;14442;50.196;8.096;2023-05-16T12:09:23;2.20;;;1.00;;
15982;SDS011;14442;50.196;8.096;2023-05-16T12:11:50;2.50;;;0.50;;
15982;SDS011;14442;50.196;8.096;2023-05-16T12:14:17;1.77;;;0.70;;
15982;SDS011;14442;50.196;8.096;2023-05-16T12:16:45;2.47;;;0.60;;
15982;SDS011;14442;50.196;8.096;2023-05-16T12:19:13;3.27;;;0.60;;
15982;SDS011;14442;50.196;8.096;2023-05-16T12:21:41;2.30;;;0.60;;
15982;SDS011;14442;50.196;8.096;2023-05-16T12:24:08;2.20;;;0.37;;
15982;SDS011;14442;50.196;8.096;2023-05-16T12:26:37;4.20;;;0.60;;
15982;SDS011;14442;50.196;8.096;2023-05-16T12:29:07;3.33;;;0.70;;
15982;SDS011;14442;50.196;8.096;2023-05-16T12:31:36;2.10;;;0.50;;
15982;SDS011;14442;50.196;8.096;2023-05-16T12:34:04;2.53;;;0.40;;
15982;SDS011;14442;50.196;8.096;2023-05-16T12:36:40;6.23;;;0.73;;
15982;SDS011;14442;50.196;8.096;2023-05-16T12:39:10;1.83;;;0.40;;
15982;SDS011;14442;50.196;8.096;2023-05-16T12:41:38;1.87;;;0.50;;
15982;SDS011;14442;50.196;8.096;2023-05-16T12:44:08;1.37;;;0.43;;
15982;SDS011;14442;50.196;8.096;2023-05-16T12:46:39;2.07;;;0.30;;
15982;SDS011;14442;50.196;8.096;2023-05-16T12:49:06;2.20;;;0.50;;
15982;SDS011;14442;50.196;8.096;2023-05-16T12:51:33;1.20;;;0.37;;
15982;SDS011;14442;50.196;8.096;2023-05-16T12:54:07;1.50;;;0.50;;
15982;SDS011;14442;50.196;8.096;2023-05-16T12:56:35;3.90;;;1.00;;
15982;SDS011;14442;50.196;8.096;2023-05-16T12:59:02;1.83;;;0.43;;
15982;SDS011;14442;50.196;8.096;2023-05-16T13:01:29;2.93;;;0.60;;
15982;SDS011;14442;50.196;8.096;2023-05-16T13:03:56;0.43;;;0.33;;
15982;SDS011;14442;50.196;8.096;2023-05-16T13:06:23;1.67;;;0.57;;
15982;SDS011;14442;50.196;8.096;2023-05-16T13:08:50;1.67;;;0.40;;
15982;SDS011;14442;50.196;8.096;2023-05-16T13:11:18;1.37;;;0.40;;
15982;SDS011;14442;50.196;8.096;2023-05-16T13:13:45;1.50;;;0.47;;
15982;SDS011;14442;50.196;8.096;2023-05-16T13:16:12;1.43;;;0.67;;
15982;SDS011;14442;50.196;8.096;2023-05-16T13:18:38;3.60;;;0.40;;
15982;SDS011;14442;50.196;8.096;2023-05-16T13:21:05;1.97;;;0.40;;
15982;SDS011;14442;50.196;8.096;2023-05-16T13:23:32;3.07;;;0.70;;
15982;SDS011;14442;50.196;8.096;2023-05-16T13:25:58;3.73;;;0.77;;
15982;SDS011;14442;50.196;8.096;2023-05-16T13:28:27;0.73;;;0.63;;
15982;SDS011;14442;50.196;8.096;2023-05-16T13:30:53;2.77;;;0.30;;
15982;SDS011;14442;50.196;8.096;2023-05-16T13:33:20;3.97;;;0.80;;
15982;SDS011;14442;50.196;8.096;2023-05-16T13:35:48;2.23;;;0.90;;
15982;SDS011;14442;50.196;8.096;2023-05-16T13:38:15;4.30;;;0.73;;
15982;SDS011;14442;50.196;8.096;2023-05-16T13:40:42;1.73;;;0.80;;
15982;SDS011;14442;50.196;8.096;2023-05-16T13:43:08;1.23;;;0.50;;
15982;SDS011;14442;50.196;8.096;2023-05-16T13:45:39;1.43;;;0.60;;
15982;SDS011;14442;50.196;8.096;2023-05-16T13:48:06;3.07;;;0.60;;
15982;SDS011;14442;50.196;8.096;2023-05-16T13:50:32;2.77;;;0.77;;
15982;SDS011;14442;50.196;8.096;2023-05-16T13:52:59;2.50;;;0.80;;
15982;SDS011;14442;50.196;8.096;2023-05-16T13:55:26;1.00;;;0.47;;
15982;SDS011;14442;50.196;8.096;2023-05-16T13:57:52;2.83;;;0.70;;
15982;SDS011;14442;50.196;8.096;2023-05-16T14:00:19;2.33;;;0.50;;
15982;SDS011;14442;50.196;8.096;2023-05-16T14:02:47;4.23;;;0.77;;
15982;SDS011;14442;50.196;8.096;2023-05-16T14:05:14;2.53;;;0.80;;
15982;SDS011;14442;50.196;8.096;2023-05-16T14:07:41;2.37;;;0.83;;
15982;SDS011;14442;50.196;8.096;2023-05-16T14:10:08;1.30;;;0.50;;
15982;SDS011;14442;50.196;8.096;2023-05-16T14:12:35;0.80;;;0.40;;
15982;SDS011;14442;50.196;8.096;2023-05-16T14:15:02;1.77;;;0.43;;
15982;SDS011;14442;50.196;8.096;2023-05-16T14:17:29;2.03;;;0.50;;
15982;SDS011;14442;50.196;8.096;2023-05-16T14:19:58;2.73;;;0.50;;
15982;SDS011;14442;50.196;8.096;2023-05-16T14:22:24;2.23;;;0.67;;
15982;SDS011;14442;50.196;8.096;2023-05-16T14:24:52;1.40;;;0.53;;
15982;SDS011;14442;50.196;8.096;2023-05-16T14:27:19;3.43;;;0.70;;
15982;SDS011;14442;50.196;8.096;2023-05-16T14:29:46;2.13;;;0.53;;
15982;SDS011;14442;50.196;8.096;2023-05-16T14:32:12;2.53;;;0.83;;
15982;SDS011;14442;50.196;8.096;2023-05-16T14:34:39;1.80;;;0.60;;
15982;SDS011;14442;50.196;8.096;2023-05-16T14:37:07;3.93;;;0.67;;
15982;SDS011;14442;50.196;8.096;2023-05-16T14:39:34;2.57;;;0.77;;
15982;SDS011;14442;50.196;8.096;2023-05-16T14:42:00;1.70;;;0.63;;
15982;SDS011;14442;50.196;8.096;2023-05-16T14:44:27;2.27;;;0.50;;
15982;SDS011;14442;50.196;8.096;2023-05-16T14:46:54;2.00;;;0.50;;
15982;SDS011;14442;50.196;8.096;2023-05-16T14:49:20;2.53;;;0.50;;
15982;SDS011;14442;50.196;8.096;2023-05-16T14:51:47;1.37;;;0.50;;
15982;SDS011;14442;50.196;8.096;2023-05-16T14:54:16;2.37;;;0.70;;
15982;SDS011;14442;50.196;8.096;2023-05-16T14:56:43;1.23;;;0.50;;
15982;SDS011;14442;50.196;8.096;2023-05-16T14:59:10;2.73;;;0.57;;